Airfield :
LOGIN :

Register | Disclaimer

   EN    FR    IT 

 










Legend :    VFR   Marginal VFR   IFR   Intensive IFR   Very Intensive IFR
Visi :
Ceiling :
>= 8 km
>= 3000ft
5 to 8 km
1000 to 3000 ft
1500m to 5 km
500 to 1000 ft
800 to 1500m
200 to 500 ft
< 800m
< 200 ft
Symbols :   Thunderstorms  Fog  Heavy snow  Heavy precipitations  Wind > 20 kt
SIGMETs :     Misc.  Thunderstorms  Icing  Turbulence  Mountain Waves  Volcanic Ashes






- Airport Elevation : 36 ft
- IATA code : LTQ


LFAT - Le Touquet

CURRENT METAR :
  • 071800Z AUTO 25010KT 220V280 9999 SCT024 BKN029 BKN220 16/11 Q1019 NOSIG

EXPIRED METARs :
  • 071730Z AUTO 24010KT 200V270 9999 BKN022 BKN034 BKN056 16/12 Q1019 NOSIG
  • 071700Z AUTO 24010KT 210V270 9999 BKN023 BKN031 BKN048 16/12 Q1019 NOSIG
  • 071630Z AUTO 24009KT 200V260 9999 SCT025 BKN032 BKN050 16/12 Q1019 NOSIG
  • 071600Z AUTO 23010KT 200V260 9999 FEW024 SCT050 16/11 Q1019 NOSIG
  • 071530Z AUTO 24010KT 200V260 9999 FEW021 16/12 Q1019 NOSIG

TAF TAF LFAT
Valid from the 07 at 15:00 until the 08 at 00:00 UTC


071400Z 0715/0724 23012KT CAVOK
TEMPO 0722/0724 4000 RA BKN013 OVC040
BECMG 0722/0724 33013KT
ATIS : +33 3 21 06 62 84



MET'MAP, your aeronautical weather chart ! - Copyright ORBIFLY December 2007 - Disclaimer

ORBIFLY MET'MAP TEAM :

Programming & Development : Alexandra Zaïnal
Original concept : Baudouin d'Aumeries
Technical & hardware support : Manuel Goepfert
Assistance : Marc-Olivier Méhu




SOURCES & CREDITS :

   NOAA